sensor_id;sensor_type;location;lat;lon;timestamp;pressure;altitude;pressure_sealevel;temperature;humidity
58927;BME280;44712;52.530;9.760;2022-09-01T00:01:50;101765.69;;;12.68;78.22
58927;BME280;44712;52.530;9.760;2022-09-01T00:04:22;101760.25;;;12.65;78.37
58927;BME280;44712;52.530;9.760;2022-09-01T00:06:52;101761.19;;;12.60;78.79
58927;BME280;44712;52.530;9.760;2022-09-01T00:09:22;101752.16;;;12.54;78.52
58927;BME280;44712;52.530;9.760;2022-09-01T00:11:52;101758.53;;;12.55;78.93
58927;BME280;44712;52.530;9.760;2022-09-01T00:14:31;101760.31;;;12.59;78.74
58927;BME280;44712;52.530;9.760;2022-09-01T00:17:00;101753.97;;;12.59;78.95
58927;BME280;44712;52.530;9.760;2022-09-01T00:19:27;101770.28;;;12.54;78.45
58927;BME280;44712;52.530;9.760;2022-09-01T00:21:55;101763.94;;;12.52;78.98
58927;BME280;44712;52.530;9.760;2022-09-01T00:24:22;101764.91;;;12.43;79.42
58927;BME280;44712;52.530;9.760;2022-09-01T00:26:54;101764.03;;;12.43;79.88
58927;BME280;44712;52.530;9.760;2022-09-01T00:29:23;101769.47;;;12.36;79.58
58927;BME280;44712;52.530;9.760;2022-09-01T00:31:50;101773.09;;;12.29;79.85
58927;BME280;44712;52.530;9.760;2022-09-01T00:34:17;101769.47;;;12.30;80.35
58927;BME280;44712;52.530;9.760;2022-09-01T00:36:44;101773.09;;;12.26;79.80
58927;BME280;44712;52.530;9.760;2022-09-01T00:39:13;101773.13;;;12.23;80.04
58927;BME280;44712;52.530;9.760;2022-09-01T00:41:45;101768.63;;;12.19;80.58
58927;BME280;44712;52.530;9.760;2022-09-01T00:44:16;101774.03;;;12.16;80.47
58927;BME280;44712;52.530;9.760;2022-09-01T00:46:47;101777.66;;;12.12;81.15
58927;BME280;44712;52.530;9.760;2022-09-01T00:49:27;101771.38;;;12.10;81.19
58927;BME280;44712;52.530;9.760;2022-09-01T00:52:13;101760.53;;;12.07;81.15
58927;BME280;44712;52.530;9.760;2022-09-01T00:54:44;101767.75;;;12.06;81.67
58927;BME280;44712;52.530;9.760;2022-09-01T00:57:14;101770.50;;;12.01;81.32
58927;BME280;44712;52.530;9.760;2022-09-01T00:59:52;101767.78;;;11.95;82.17
58927;BME280;44712;52.530;9.760;2022-09-01T01:02:20;101760.53;;;11.88;82.34
58927;BME280;44712;52.530;9.760;2022-09-01T01:04:48;101765.94;;;11.91;82.22
58927;BME280;44712;52.530;9.760;2022-09-01T01:07:16;101758.69;;;11.90;82.41
58927;BME280;44712;52.530;9.760;2022-09-01T01:09:43;101756.91;;;11.87;82.22
58927;BME280;44712;52.530;9.760;2022-09-01T01:12:11;101758.72;;;11.87;82.48
58927;BME280;44712;52.530;9.760;2022-09-01T01:14:43;101759.59;;;11.89;82.77
58927;BME280;44712;52.530;9.760;2022-09-01T01:17:11;101753.28;;;11.88;83.54
58927;BME280;44712;52.530;9.760;2022-09-01T01:19:42;101755.09;;;11.85;83.60
58927;BME280;44712;52.530;9.760;2022-09-01T01:22:57;101761.44;;;11.81;83.80
58927;BME280;44712;52.530;9.760;2022-09-01T01:25:38;101756.00;;;11.82;83.43
58927;BME280;44712;52.530;9.760;2022-09-01T01:28:18;101751.50;;;11.83;83.33
58927;BME280;44712;52.530;9.760;2022-09-01T01:31:00;101752.41;;;11.76;83.82
58927;BME280;44712;52.530;9.760;2022-09-01T01:33:31;101751.50;;;11.73;84.16
58927;BME280;44712;52.530;9.760;2022-09-01T01:35:58;101752.41;;;11.66;84.01
58927;BME280;44712;52.530;9.760;2022-09-01T01:38:27;101758.75;;;11.62;83.58
58927;BME280;44712;52.530;9.760;2022-09-01T01:40:55;101760.56;;;11.60;84.86
58927;BME280;44712;52.530;9.760;2022-09-01T01:43:23;101766.88;;;11.59;84.35
58927;BME280;44712;52.530;9.760;2022-09-01T01:45:53;101763.25;;;11.57;84.31
58927;BME280;44712;52.530;9.760;2022-09-01T01:48:24;101762.38;;;11.55;84.40
58927;BME280;44712;52.530;9.760;2022-09-01T01:50:52;101766.00;;;11.48;84.26
58927;BME280;44712;52.530;9.760;2022-09-01T01:53:21;101761.47;;;11.48;84.42
58927;BME280;44712;52.530;9.760;2022-09-01T01:55:49;101774.13;;;11.46;84.92
58927;BME280;44712;52.530;9.760;2022-09-01T01:58:16;101766.00;;;11.38;84.77
58927;BME280;44712;52.530;9.760;2022-09-01T02:00:48;101765.09;;;11.41;85.35
58927;BME280;44712;52.530;9.760;2022-09-01T02:03:17;101771.41;;;11.35;85.22
58927;BME280;44712;52.530;9.760;2022-09-01T02:05:47;101761.50;;;11.34;85.28
58927;BME280;44712;52.530;9.760;2022-09-01T02:08:16;101771.41;;;11.26;85.53
58927;BME280;44712;52.530;9.760;2022-09-01T02:10:51;101765.97;;;11.26;85.71
58927;BME280;44712;52.530;9.760;2022-09-01T02:13:20;101775.00;;;11.23;85.95
58927;BME280;44712;52.530;9.760;2022-09-01T02:15:54;101771.41;;;11.21;86.29
58927;BME280;44712;52.530;9.760;2022-09-01T02:18:25;101766.88;;;11.14;85.86
58927;BME280;44712;52.530;9.760;2022-09-01T02:20:56;101764.19;;;11.16;86.73
58927;BME280;44712;52.530;9.760;2022-09-01T02:23:27;101768.69;;;11.14;86.61
58927;BME280;44712;52.530;9.760;2022-09-01T02:25:58;101767.78;;;11.09;87.25
58927;BME280;44712;52.530;9.760;2022-09-01T02:28:46;101778.63;;;11.05;87.33
58927;BME280;44712;52.530;9.760;2022-09-01T02:31:25;101775.00;;;10.99;87.90
58927;BME280;44712;52.530;9.760;2022-09-01T02:33:57;101773.19;;;10.99;88.34
58927;BME280;44712;52.530;9.760;2022-09-01T02:36:25;101765.94;;;10.95;87.97
58927;BME280;44712;52.530;9.760;2022-09-01T02:38:53;101767.75;;;10.90;87.76
58927;BME280;44712;52.530;9.760;2022-09-01T02:41:22;101762.31;;;10.84;88.25
58927;BME280;44712;52.530;9.760;2022-09-01T02:43:56;101760.53;;;10.80;88.37
58927;BME280;44712;52.530;9.760;2022-09-01T02:46:24;101759.59;;;10.81;88.51
58927;BME280;44712;52.530;9.760;2022-09-01T02:48:52;101759.59;;;10.76;88.74
58927;BME280;44712;52.530;9.760;2022-09-01T02:51:21;101756.88;;;10.75;88.95
58927;BME280;44712;52.530;9.760;2022-09-01T02:53:51;101747.84;;;10.72;89.34
58927;BME280;44712;52.530;9.760;2022-09-01T02:56:23;101750.56;;;10.69;89.23
58927;BME280;44712;52.530;9.760;2022-09-01T02:58:53;101751.44;;;10.68;89.55
58927;BME280;44712;52.530;9.760;2022-09-01T03:01:27;101745.09;;;10.63;89.30
58927;BME280;44712;52.530;9.760;2022-09-01T03:04:00;101755.03;;;10.64;89.24
58927;BME280;44712;52.530;9.760;2022-09-01T03:06:28;101749.59;;;10.58;89.39
58927;BME280;44712;52.530;9.760;2022-09-01T03:08:57;101753.22;;;10.57;89.71
58927;BME280;44712;52.530;9.760;2022-09-01T03:11:29;101749.59;;;10.55;89.61
58927;BME280;44712;52.530;9.760;2022-09-01T03:13:56;101743.28;;;10.54;89.77
58927;BME280;44712;52.530;9.760;2022-09-01T03:16:23;101744.19;;;10.55;89.83
58927;BME280;44712;52.530;9.760;2022-09-01T03:18:50;101739.66;;;10.52;90.05
58927;BME280;44712;52.530;9.760;2022-09-01T03:21:19;101746.84;;;10.47;90.26
58927;BME280;44712;52.530;9.760;2022-09-01T03:23:49;101747.75;;;10.42;90.46
58927;BME280;44712;52.530;9.760;2022-09-01T03:26:17;101748.63;;;10.39;90.05
58927;BME280;44712;52.530;9.760;2022-09-01T03:28:49;101749.53;;;10.38;90.62
58927;BME280;44712;52.530;9.760;2022-09-01T03:31:16;101755.88;;;10.37;90.22
58927;BME280;44712;52.530;9.760;2022-09-01T03:33:45;101756.69;;;10.31;90.19
58927;BME280;44712;52.530;9.760;2022-09-01T03:36:20;101753.97;;;10.27;90.47
58927;BME280;44712;52.530;9.760;2022-09-01T03:38:49;101754.88;;;10.24;90.68
58927;BME280;44712;52.530;9.760;2022-09-01T03:41:21;101753.03;;;10.20;90.43
58927;BME280;44712;52.530;9.760;2022-09-01T03:43:48;101751.28;;;10.25;91.20
58927;BME280;44712;52.530;9.760;2022-09-01T03:46:16;101747.63;;;10.23;91.31
58927;BME280;44712;52.530;9.760;2022-09-01T03:48:55;101742.19;;;10.14;91.06
58927;BME280;44712;52.530;9.760;2022-09-01T03:51:25;101751.19;;;10.13;91.64
58927;BME280;44712;52.530;9.760;2022-09-01T03:53:53;101753.00;;;10.15;91.68
58927;BME280;44712;52.530;9.760;2022-09-01T03:56:22;101747.59;;;10.11;91.54
58927;BME280;44712;52.530;9.760;2022-09-01T03:58:57;101753.88;;;10.11;91.66
58927;BME280;44712;52.530;9.760;2022-09-01T04:01:26;101738.53;;;10.05;91.90
58927;BME280;44712;52.530;9.760;2022-09-01T04:03:54;101740.34;;;10.07;91.94
58927;BME280;44712;52.530;9.760;2022-09-01T04:06:32;101742.16;;;10.08;92.15
58927;BME280;44712;52.530;9.760;2022-09-01T04:08:59;101733.13;;;10.09;92.24
58927;BME280;44712;52.530;9.760;2022-09-01T04:11:30;101747.59;;;10.11;92.75
58927;BME280;44712;52.530;9.760;2022-09-01T04:13:58;101746.66;;;10.09;92.64
58927;BME280;44712;52.530;9.760;2022-09-01T04:16:28;101738.53;;;10.09;93.17
58927;BME280;44712;52.530;9.760;2022-09-01T04:19:18;101751.19;;;10.08;92.81
58927;BME280;44712;52.530;9.760;2022-09-01T04:21:54;101751.19;;;10.07;92.95
58927;BME280;44712;52.530;9.760;2022-09-01T04:24:27;101742.13;;;10.04;93.22
58927;BME280;44712;52.530;9.760;2022-09-01T04:26:57;101748.47;;;10.03;93.46
58927;BME280;44712;52.530;9.760;2022-09-01T04:29:28;101751.13;;;10.00;93.57
58927;BME280;44712;52.530;9.760;2022-09-01T04:31:58;101756.59;;;10.07;93.57
58927;BME280;44712;52.530;9.760;2022-09-01T04:34:30;101757.47;;;10.05;93.24
58927;BME280;44712;52.530;9.760;2022-09-01T04:37:13;101752.06;;;10.04;93.58
58927;BME280;44712;52.530;9.760;2022-09-01T04:39:48;101756.53;;;10.02;93.33
58927;BME280;44712;52.530;9.760;2022-09-01T04:42:24;101760.13;;;9.99;93.44
58927;BME280;44712;52.530;9.760;2022-09-01T04:44:52;101751.13;;;9.97;93.46
58927;BME280;44712;52.530;9.760;2022-09-01T04:47:23;101754.72;;;9.99;94.22
58927;BME280;44712;52.530;9.760;2022-09-01T04:50:04;101755.66;;;10.00;93.94
58927;BME280;44712;52.530;9.760;2022-09-01T04:52:43;101760.13;;;9.96;94.09
58927;BME280;44712;52.530;9.760;2022-09-01T04:55:19;101756.53;;;9.97;94.17
58927;BME280;44712;52.530;9.760;2022-09-01T04:57:47;101758.31;;;9.95;94.20
58927;BME280;44712;52.530;9.760;2022-09-01T05:00:17;101756.53;;;9.94;94.23
58927;BME280;44712;52.530;9.760;2022-09-01T05:02:53;101761.94;;;9.96;94.56
58927;BME280;44712;52.530;9.760;2022-09-01T05:05:22;101761.94;;;9.97;94.30
58927;BME280;44712;52.530;9.760;2022-09-01T05:07:49;101765.53;;;9.99;94.50
58927;BME280;44712;52.530;9.760;2022-09-01T05:10:22;101766.47;;;9.97;94.39
58927;BME280;44712;52.530;9.760;2022-09-01T05:13:14;101762.13;;;10.33;97.53
58927;BME280;44712;52.530;9.760;2022-09-01T05:15:45;101765.69;;;10.27;95.85
58927;BME280;44712;52.530;9.760;2022-09-01T05:18:18;101772.00;;;10.23;95.03
58927;BME280;44712;52.530;9.760;2022-09-01T05:20:54;101771.06;;;10.18;94.28
58927;BME280;44712;52.530;9.760;2022-09-01T05:23:20;101768.34;;;10.12;94.39
58927;BME280;44712;52.530;9.760;2022-09-01T05:25:49;101767.41;;;10.08;94.76
58927;BME280;44712;52.530;9.760;2022-09-01T05:28:18;101772.81;;;10.11;95.10
58927;BME280;44712;52.530;9.760;2022-09-01T05:30:46;101777.34;;;10.11;95.38
58927;BME280;44712;52.530;9.760;2022-09-01T05:33:14;101774.63;;;10.11;95.75
58927;BME280;44712;52.530;9.760;2022-09-01T05:35:55;101768.34;;;10.12;95.99
58927;BME280;44712;52.530;9.760;2022-09-01T05:38:22;101759.34;;;10.14;96.21
58927;BME280;44712;52.530;9.760;2022-09-01T05:40:57;101769.28;;;10.18;96.59
58927;BME280;44712;52.530;9.760;2022-09-01T05:43:24;101767.47;;;10.22;97.12
58927;BME280;44712;52.530;9.760;2022-09-01T05:45:53;101760.28;;;10.24;97.06
58927;BME280;44712;52.530;9.760;2022-09-01T05:48:34;101772.91;;;10.28;97.23
58927;BME280;44712;52.530;9.760;2022-09-01T05:51:08;101763.03;;;10.33;97.73
58927;BME280;44712;52.530;9.760;2022-09-01T05:53:56;101774.78;;;10.35;97.89
58927;BME280;44712;52.530;9.760;2022-09-01T05:56:27;101773.91;;;10.40;98.27
58927;BME280;44712;52.530;9.760;2022-09-01T05:58:54;101765.81;;;10.43;98.31
58927;BME280;44712;52.530;9.760;2022-09-01T06:01:43;101765.84;;;10.52;98.95
58927;BME280;44712;52.530;9.760;2022-09-01T06:04:15;101771.25;;;10.58;99.10
58927;BME280;44712;52.530;9.760;2022-09-01T06:06:46;101770.41;;;10.64;99.28
58927;BME280;44712;52.530;9.760;2022-09-01T06:09:42;101768.63;;;10.74;100.00
58927;BME280;44712;52.530;9.760;2022-09-01T06:12:10;101777.66;;;10.85;100.00
58927;BME280;44712;52.530;9.760;2022-09-01T06:14:45;101769.56;;;10.94;100.00
58927;BME280;44712;52.530;9.760;2022-09-01T06:17:14;101775.91;;;11.05;100.00
58927;BME280;44712;52.530;9.760;2022-09-01T06:19:44;101770.50;;;11.12;100.00
58927;BME280;44712;52.530;9.760;2022-09-01T06:22:12;101770.50;;;11.16;100.00
58927;BME280;44712;52.530;9.760;2022-09-01T06:24:38;101766.00;;;11.28;100.00
58927;BME280;44712;52.530;9.760;2022-09-01T06:27:09;101775.03;;;11.41;100.00
58927;BME280;44712;52.530;9.760;2022-09-01T06:29:36;101781.34;;;11.49;100.00
58927;BME280;44712;52.530;9.760;2022-09-01T06:32:06;101778.63;;;11.58;100.00
58927;BME280;44712;52.530;9.760;2022-09-01T06:34:38;101787.69;;;11.69;100.00
58927;BME280;44712;52.530;9.760;2022-09-01T06:37:08;101785.84;;;11.90;100.00
58927;BME280;44712;52.530;9.760;2022-09-01T06:39:36;101780.44;;;11.96;100.00
58927;BME280;44712;52.530;9.760;2022-09-01T06:42:04;101781.31;;;12.04;100.00
58927;BME280;44712;52.530;9.760;2022-09-01T06:44:44;101781.28;;;12.18;99.95
58927;BME280;44712;52.530;9.760;2022-09-01T06:47:12;101787.59;;;12.27;99.22
58927;BME280;44712;52.530;9.760;2022-09-01T06:49:38;101791.19;;;12.33;99.17
58927;BME280;44712;52.530;9.760;2022-09-01T06:52:12;101787.53;;;12.44;98.61
58927;BME280;44712;52.530;9.760;2022-09-01T06:54:39;101791.97;;;12.59;96.56
58927;BME280;44712;52.530;9.760;2022-09-01T06:57:09;101791.03;;;12.67;96.55
58927;BME280;44712;52.530;9.760;2022-09-01T06:59:56;101791.88;;;12.83;94.75
58927;BME280;44712;52.530;9.760;2022-09-01T07:02:23;101789.13;;;12.91;94.47
58927;BME280;44712;52.530;9.760;2022-09-01T07:05:28;101789.94;;;13.05;93.38
58927;BME280;44712;52.530;9.760;2022-09-01T07:08:28;101791.66;;;13.20;92.72
58927;BME280;44712;52.530;9.760;2022-09-01T07:11:08;101805.06;;;13.50;88.09
58927;BME280;44712;52.530;9.760;2022-09-01T07:14:04;101798.44;;;13.77;85.98
58927;BME280;44712;52.530;9.760;2022-09-01T07:16:46;101793.81;;;13.90;83.35
58927;BME280;44712;52.530;9.760;2022-09-01T07:19:19;101788.19;;;14.05;82.73
58927;BME280;44712;52.530;9.760;2022-09-01T07:21:56;101800.69;;;14.25;80.30
58927;BME280;44712;52.530;9.760;2022-09-01T07:24:46;101795.13;;;14.34;80.15
58927;BME280;44712;52.530;9.760;2022-09-01T07:27:56;101795.03;;;14.44;79.81
58927;BME280;44712;52.530;9.760;2022-09-01T07:30:26;101793.06;;;14.55;79.79
58927;BME280;44712;52.530;9.760;2022-09-01T07:32:53;101798.41;;;14.67;80.47
58927;BME280;44712;52.530;9.760;2022-09-01T07:35:43;101789.97;;;14.84;77.82
58927;BME280;44712;52.530;9.760;2022-09-01T07:38:31;101794.31;;;15.01;76.92
58927;BME280;44712;52.530;9.760;2022-09-01T07:41:20;101789.56;;;15.15;76.21
58927;BME280;44712;52.530;9.760;2022-09-01T07:44:40;101793.78;;;15.33;75.31
58927;BME280;44712;52.530;9.760;2022-09-01T07:47:28;101792.59;;;15.50;73.22
58927;BME280;44712;52.530;9.760;2022-09-01T07:50:15;101791.47;;;15.65;72.77
58927;BME280;44712;52.530;9.760;2022-09-01T07:53:04;101803.00;;;15.84;74.03
58927;BME280;44712;52.530;9.760;2022-09-01T07:55:31;101794.50;;;15.99;72.56
58927;BME280;44712;52.530;9.760;2022-09-01T07:58:02;101798.13;;;16.47;69.09
58927;BME280;44712;52.530;9.760;2022-09-01T08:00:30;101803.31;;;16.62;67.63
58927;BME280;44712;52.530;9.760;2022-09-01T08:03:04;101799.13;;;16.85;66.50
58927;BME280;44712;52.530;9.760;2022-09-01T08:05:33;101801.47;;;17.03;62.72
58927;BME280;44712;52.530;9.760;2022-09-01T08:08:04;101806.53;;;17.22;62.71
58927;BME280;44712;52.530;9.760;2022-09-01T08:10:44;101807.47;;;17.59;62.10
58927;BME280;44712;52.530;9.760;2022-09-01T08:13:15;101804.91;;;17.87;61.11
58927;BME280;44712;52.530;9.760;2022-09-01T08:15:48;101800.59;;;18.13;60.87
58927;BME280;44712;52.530;9.760;2022-09-01T08:18:35;101799.66;;;18.45;61.61
58927;BME280;44712;52.530;9.760;2022-09-01T08:21:31;101798.72;;;18.78;57.40
58927;BME280;44712;52.530;9.760;2022-09-01T08:24:00;101799.78;;;19.03;54.87
58927;BME280;44712;52.530;9.760;2022-09-01T08:26:28;101799.03;;;19.28;55.00
58927;BME280;44712;52.530;9.760;2022-09-01T08:28:59;101800.19;;;19.48;51.93
58927;BME280;44712;52.530;9.760;2022-09-01T08:31:33;101804.94;;;19.69;50.10
58927;BME280;44712;52.530;9.760;2022-09-01T08:34:02;101801.25;;;19.70;50.77
58927;BME280;44712;52.530;9.760;2022-09-01T08:36:32;101798.16;;;19.81;50.20
58927;BME280;44712;52.530;9.760;2022-09-01T08:39:00;101805.69;;;20.01;50.51
58927;BME280;44712;52.530;9.760;2022-09-01T08:44:16;101797.19;;;20.34;49.62
58927;BME280;44712;52.530;9.760;2022-09-01T08:46:48;101789.78;;;20.60;48.03
58927;BME280;44712;52.530;9.760;2022-09-01T08:49:22;101793.19;;;20.92;48.22
58927;BME280;44712;52.530;9.760;2022-09-01T08:54:59;101803.59;;;21.07;46.86
58927;BME280;44712;52.530;9.760;2022-09-01T08:57:35;101796.78;;;21.16;45.17
58927;BME280;44712;52.530;9.760;2022-09-01T09:00:24;101800.53;;;21.37;47.24
58927;BME280;44712;52.530;9.760;2022-09-01T09:06:28;101786.22;;;21.50;45.28
58927;BME280;44712;52.530;9.760;2022-09-01T09:09:02;101794.13;;;21.59;43.34
58927;BME280;44712;52.530;9.760;2022-09-01T09:11:50;101797.59;;;21.64;43.30
58927;BME280;44712;52.530;9.760;2022-09-01T09:17:28;101793.72;;;21.90;42.78
58927;BME280;44712;52.530;9.760;2022-09-01T09:19:59;101800.00;;;21.94;42.76
58927;BME280;44712;52.530;9.760;2022-09-01T09:22:26;101786.06;;;22.18;41.76
58927;BME280;44712;52.530;9.760;2022-09-01T09:25:12;101789.84;;;22.15;42.94
58927;BME280;44712;52.530;9.760;2022-09-01T09:27:49;101782.78;;;22.51;43.25
58927;BME280;44712;52.530;9.760;2022-09-01T09:30:29;101776.22;;;22.72;43.34
58927;BME280;44712;52.530;9.760;2022-09-01T09:32:59;101783.88;;;22.47;39.78
58927;BME280;44712;52.530;9.760;2022-09-01T09:35:50;101778.44;;;22.45;41.47
58927;BME280;44712;52.530;9.760;2022-09-01T09:38:22;101770.09;;;22.47;41.82
58927;BME280;44712;52.530;9.760;2022-09-01T09:41:06;101767.88;;;22.55;41.84
58927;BME280;44712;52.530;9.760;2022-09-01T09:44:06;101775.78;;;22.82;39.95
58927;BME280;44712;52.530;9.760;2022-09-01T09:46:44;101776.09;;;22.95;40.69
58927;BME280;44712;52.530;9.760;2022-09-01T09:49:20;101776.25;;;23.11;40.71
58927;BME280;44712;52.530;9.760;2022-09-01T09:54:39;101764.47;;;22.88;38.33
58927;BME280;44712;52.530;9.760;2022-09-01T09:57:12;101763.56;;;23.06;38.76
58927;BME280;44712;52.530;9.760;2022-09-01T09:59:47;101761.28;;;23.16;37.50
58927;BME280;44712;52.530;9.760;2022-09-01T10:02:40;101767.09;;;23.29;37.92
58927;BME280;44712;52.530;9.760;2022-09-01T10:05:41;101759.97;;;23.43;38.67
58927;BME280;44712;52.530;9.760;2022-09-01T10:08:11;101756.00;;;23.66;38.11
58927;BME280;44712;52.530;9.760;2022-09-01T10:10:44;101754.22;;;23.65;37.49
58927;BME280;44712;52.530;9.760;2022-09-01T10:13:25;101758.91;;;23.45;36.90
58927;BME280;44712;52.530;9.760;2022-09-01T10:16:01;101749.59;;;23.48;37.15
58927;BME280;44712;52.530;9.760;2022-09-01T10:18:38;101753.97;;;23.52;38.10
58927;BME280;44712;52.530;9.760;2022-09-01T10:21:49;101758.53;;;23.70;38.86
58927;BME280;44712;52.530;9.760;2022-09-01T10:26:50;101740.94;;;23.36;36.32
58927;BME280;44712;52.530;9.760;2022-09-01T10:29:31;101749.22;;;23.36;36.68
58927;BME280;44712;52.530;9.760;2022-09-01T10:32:17;101739.78;;;23.23;36.49
58927;BME280;44712;52.530;9.760;2022-09-01T10:35:08;101745.50;;;23.55;38.23
58927;BME280;44712;52.530;9.760;2022-09-01T10:37:37;101735.78;;;23.65;35.67
58927;BME280;44712;52.530;9.760;2022-09-01T10:43:24;101728.38;;;23.66;36.31
58927;BME280;44712;52.530;9.760;2022-09-01T10:45:53;101729.25;;;23.66;36.02
58927;BME280;44712;52.530;9.760;2022-09-01T10:48:32;101729.44;;;23.63;36.35
58927;BME280;44712;52.530;9.760;2022-09-01T10:53:54;101724.38;;;23.71;36.63
58927;BME280;44712;52.530;9.760;2022-09-01T10:56:46;101721.78;;;23.68;37.08
58927;BME280;44712;52.530;9.760;2022-09-01T11:02:17;101711.72;;;23.67;36.73
58927;BME280;44712;52.530;9.760;2022-09-01T11:13:23;101702.09;;;23.39;36.25
58927;BME280;44712;52.530;9.760;2022-09-01T11:15:54;101708.72;;;23.18;36.34
58927;BME280;44712;52.530;9.760;2022-09-01T11:18:28;101703.16;;;23.37;37.60
58927;BME280;44712;52.530;9.760;2022-09-01T11:21:22;101708.38;;;23.43;38.87
58927;BME280;44712;52.530;9.760;2022-09-01T11:26:57;101706.66;;;23.58;37.00
58927;BME280;44712;52.530;9.760;2022-09-01T11:29:53;101703.59;;;23.64;36.45
58927;BME280;44712;52.530;9.760;2022-09-01T11:32:25;101694.97;;;23.53;37.23
58927;BME280;44712;52.530;9.760;2022-09-01T11:34:59;101687.91;;;23.65;36.70
58927;BME280;44712;52.530;9.760;2022-09-01T11:37:27;101690.56;;;23.66;37.08
58927;BME280;44712;52.530;9.760;2022-09-01T11:39:57;101706.66;;;23.76;38.10
58927;BME280;44712;52.530;9.760;2022-09-01T11:42:33;101700.50;;;23.88;37.51
58927;BME280;44712;52.530;9.760;2022-09-01T11:45:22;101688.63;;;23.51;37.21
58927;BME280;44712;52.530;9.760;2022-09-01T11:47:54;101693.97;;;23.36;37.96
58927;BME280;44712;52.530;9.760;2022-09-01T11:50:39;101690.25;;;23.37;38.13
58927;BME280;44712;52.530;9.760;2022-09-01T11:53:09;101691.28;;;23.17;38.72
58927;BME280;44712;52.530;9.760;2022-09-01T11:55:44;101694.06;;;22.98;38.98
58927;BME280;44712;52.530;9.760;2022-09-01T12:00:56;101694.50;;;22.70;39.39
58927;BME280;44712;52.530;9.760;2022-09-01T12:03:26;101679.91;;;22.68;38.91
58927;BME280;44712;52.530;9.760;2022-09-01T12:05:58;101677.75;;;22.74;39.05
58927;BME280;44712;52.530;9.760;2022-09-01T12:08:29;101672.19;;;22.94;38.64
58927;BME280;44712;52.530;9.760;2022-09-01T12:13:34;101680.03;;;22.84;38.92
58927;BME280;44712;52.530;9.760;2022-09-01T12:16:04;101680.50;;;22.74;40.07
58927;BME280;44712;52.530;9.760;2022-09-01T12:18:49;101681.69;;;22.50;38.99
58927;BME280;44712;52.530;9.760;2022-09-01T12:21:32;101673.28;;;22.32;38.99
58927;BME280;44712;52.530;9.760;2022-09-01T12:24:31;101676.75;;;22.37;40.17
58927;BME280;44712;52.530;9.760;2022-09-01T12:26:59;101672.13;;;22.38;40.20
58927;BME280;44712;52.530;9.760;2022-09-01T12:29:28;101676.47;;;22.44;41.09
58927;BME280;44712;52.530;9.760;2022-09-01T12:31:58;101657.69;;;22.52;39.88
58927;BME280;44712;52.530;9.760;2022-09-01T12:34:38;101666.63;;;22.57;39.81
58927;BME280;44712;52.530;9.760;2022-09-01T12:39:43;101659.53;;;22.70;38.74
58927;BME280;44712;52.530;9.760;2022-09-01T12:44:50;101654.22;;;22.85;38.83
58927;BME280;44712;52.530;9.760;2022-09-01T12:52:30;101657.97;;;22.84;37.84
58927;BME280;44712;52.530;9.760;2022-09-01T12:57:27;101657.47;;;22.76;39.63
58927;BME280;44712;52.530;9.760;2022-09-01T13:00:25;101654.69;;;22.76;38.70
58927;BME280;44712;52.530;9.760;2022-09-01T13:08:13;101649.03;;;22.40;38.40
58927;BME280;44712;52.530;9.760;2022-09-01T13:10:57;101647.25;;;22.39;38.62
58927;BME280;44712;52.530;9.760;2022-09-01T13:13:25;101636.75;;;22.48;40.12
58927;BME280;44712;52.530;9.760;2022-09-01T13:15:56;101629.78;;;22.58;39.65
58927;BME280;44712;52.530;9.760;2022-09-01T13:18:27;101630.59;;;22.79;39.91
58927;BME280;44712;52.530;9.760;2022-09-01T13:20:55;101638.47;;;22.87;39.00
58927;BME280;44712;52.530;9.760;2022-09-01T13:23:23;101641.63;;;22.79;38.99
58927;BME280;44712;52.530;9.760;2022-09-01T13:25:50;101640.38;;;22.67;38.34
58927;BME280;44712;52.530;9.760;2022-09-01T13:28:20;101634.66;;;22.53;38.78
58927;BME280;44712;52.530;9.760;2022-09-01T13:30:55;101636.88;;;22.45;38.00
58927;BME280;44712;52.530;9.760;2022-09-01T13:33:44;101630.84;;;22.36;38.71
58927;BME280;44712;52.530;9.760;2022-09-01T13:36:30;101631.41;;;22.24;38.99
58927;BME280;44712;52.530;9.760;2022-09-01T13:39:17;101624.03;;;22.24;39.01
58927;BME280;44712;52.530;9.760;2022-09-01T13:41:46;101629.78;;;22.20;39.37
58927;BME280;44712;52.530;9.760;2022-09-01T13:44:14;101621.66;;;22.17;40.22
58927;BME280;44712;52.530;9.760;2022-09-01T13:46:43;101621.78;;;22.14;40.33
58927;BME280;44712;52.530;9.760;2022-09-01T13:49:30;101616.63;;;22.06;40.50
58927;BME280;44712;52.530;9.760;2022-09-01T13:52:17;101615.91;;;22.02;40.91
58927;BME280;44712;52.530;9.760;2022-09-01T13:54:44;101605.47;;;21.90;39.65
58927;BME280;44712;52.530;9.760;2022-09-01T13:57:11;101606.41;;;21.89;41.20
58927;BME280;44712;52.530;9.760;2022-09-01T13:59:38;101605.69;;;22.04;40.57
58927;BME280;44712;52.530;9.760;2022-09-01T14:02:04;101596.53;;;22.23;38.22
58927;BME280;44712;52.530;9.760;2022-09-01T14:04:31;101599.59;;;22.17;38.99
58927;BME280;44712;52.530;9.760;2022-09-01T14:06:59;101602.22;;;22.20;38.58
58927;BME280;44712;52.530;9.760;2022-09-01T14:09:26;101601.59;;;22.32;37.89
58927;BME280;44712;52.530;9.760;2022-09-01T14:11:53;101595.34;;;22.29;38.30
58927;BME280;44712;52.530;9.760;2022-09-01T14:14:21;101593.09;;;22.18;38.30
58927;BME280;44712;52.530;9.760;2022-09-01T14:16:48;101601.59;;;22.13;38.95
58927;BME280;44712;52.530;9.760;2022-09-01T14:19:15;101590.50;;;22.15;39.50
58927;BME280;44712;52.530;9.760;2022-09-01T14:21:42;101586.53;;;22.20;38.97
58927;BME280;44712;52.530;9.760;2022-09-01T14:24:11;101581.50;;;22.30;39.02
58927;BME280;44712;52.530;9.760;2022-09-01T14:26:40;101578.50;;;22.54;38.30
58927;BME280;44712;52.530;9.760;2022-09-01T14:29:07;101579.25;;;22.57;37.88